createdAt,value
2022-11-23T00:00:45.785Z,3.30
2022-11-23T00:15:33.365Z,2.95
2022-11-23T00:30:41.462Z,3.07
2022-11-23T00:45:33.355Z,2.67
2022-11-23T01:00:35.626Z,2.55
2022-11-23T01:15:23.720Z,2.87
2022-11-23T01:30:23.626Z,2.53
2022-11-23T01:45:23.659Z,2.97
2022-11-23T02:00:30.509Z,2.58
2022-11-23T02:15:24.191Z,2.90
2022-11-23T02:30:23.818Z,2.50
2022-11-23T02:45:23.595Z,2.10
2022-11-23T03:00:26.641Z,1.95
2022-11-23T03:15:23.675Z,1.88
2022-11-23T03:30:23.912Z,1.67
2022-11-23T03:45:23.824Z,1.50
2022-11-23T04:00:32.777Z,1.35
2022-11-23T04:15:23.822Z,1.38
2022-11-23T04:30:23.952Z,1.48
2022-11-23T04:45:23.777Z,1.52
2022-11-23T05:00:30.341Z,1.67
2022-11-23T05:15:24.007Z,1.55
2022-11-23T05:30:24.412Z,1.47
2022-11-23T05:45:24.053Z,1.35
2022-11-23T06:00:39.985Z,1.53
2022-11-23T06:15:23.818Z,1.05
2022-11-23T06:30:23.952Z,1.27
2022-11-23T06:45:24.041Z,1.02
2022-11-23T07:00:32.811Z,0.93
2022-11-23T07:15:23.978Z,0.98
2022-11-23T07:30:29.552Z,0.82
2022-11-23T07:45:24.127Z,0.90
2022-11-23T08:00:32.676Z,0.82
2022-11-23T08:15:24.179Z,1.05
2022-11-23T08:30:24.942Z,1.43
2022-11-23T08:45:24.065Z,1.52
2022-11-23T09:00:39.888Z,1.80
2022-11-23T09:15:24.068Z,2.05
2022-11-23T09:30:24.673Z,2.60
2022-11-23T09:45:24.205Z,2.78
2022-11-23T10:00:38.114Z,3.25
2022-11-23T10:15:24.250Z,3.85
2022-11-23T10:30:24.457Z,4.15
2022-11-23T10:45:24.391Z,4.57
2022-11-23T11:00:30.045Z,5.10
2022-11-23T11:15:24.280Z,5.40
2022-11-23T11:30:33.451Z,5.85
2022-11-23T11:45:34.047Z,6.22
2022-11-23T12:00:53.230Z,6.55
2022-11-23T12:15:47.306Z,6.93
2022-11-23T12:30:33.622Z,7.20
2022-11-23T12:45:23.714Z,7.35
2022-11-23T13:00:26.509Z,7.70
2022-11-23T13:15:23.630Z,7.82
2022-11-23T13:30:51.866Z,7.90
2022-11-23T13:45:23.901Z,8.00
2022-11-23T14:00:25.063Z,7.98
2022-11-23T14:15:23.709Z,8.00
2022-11-23T14:30:28.703Z,7.90
2022-11-23T14:45:23.862Z,7.87
2022-11-23T15:00:23.829Z,7.50
2022-11-23T15:15:23.987Z,7.05
2022-11-23T15:30:24.025Z,7.25
2022-11-23T15:45:23.695Z,6.17
2022-11-23T16:00:36.901Z,6.20
2022-11-23T16:15:23.974Z,5.85
2022-11-23T16:30:24.061Z,5.77
2022-11-23T16:45:23.825Z,5.82
2022-11-23T17:00:24.043Z,5.97
2022-11-23T17:15:23.908Z,6.30
2022-11-23T17:30:26.975Z,6.38
2022-11-23T17:45:23.919Z,6.38
2022-11-23T18:00:41.771Z,6.45
2022-11-23T18:15:24.951Z,6.45
2022-11-23T18:30:24.167Z,6.47
2022-11-23T18:45:24.044Z,6.40
2022-11-23T19:00:26.093Z,6.50
2022-11-23T19:15:24.194Z,6.43
2022-11-23T19:30:24.238Z,6.50
2022-11-23T19:31:58.966Z,7.50
2022-11-23T19:36:04.122Z,7.50
2022-11-23T19:39:20.203Z,7.50
2022-11-23T19:43:49.189Z,6.90
2022-11-23T19:50:59.266Z,8.00
2022-11-23T19:54:27.996Z,8.00
2022-11-23T20:00:45.318Z,8.00
2022-11-23T20:05:02.240Z,8.00
2022-11-23T20:09:49.847Z,8.00
2022-11-23T20:15:23.687Z,7.25
2022-11-23T20:35:12.200Z,7.35
2022-11-23T20:48:20.715Z,8.00
2022-11-23T21:03:10.397Z,6.80
2022-11-23T21:15:23.322Z,7.00
2022-11-23T21:30:23.359Z,6.95
2022-11-23T21:45:23.267Z,6.88
2022-11-23T22:00:31.487Z,6.90
2022-11-23T22:15:23.877Z,6.90
2022-11-23T22:30:23.625Z,6.70
2022-11-23T22:45:23.644Z,6.55
2022-11-23T23:00:38.049Z,7.50
2022-11-23T23:15:24.075Z,6.28
2022-11-23T23:30:23.771Z,5.93
2022-11-23T23:45:23.669Z,5.80
